createdAt,value
2019-05-16T15:58:10.468Z,29.13
2019-05-16T15:59:09.877Z,29.31
2019-05-16T16:00:39.709Z,29.13
2019-05-16T16:01:39.690Z,29.20
2019-05-16T16:03:10.281Z,27.08
2019-05-16T16:04:10.236Z,27.62
2019-05-16T16:05:42.793Z,26.47
2019-05-16T16:06:43.153Z,27.56
2019-05-16T16:07:40.751Z,29.05
2019-05-16T16:08:40.753Z,31.74
2019-05-16T16:09:40.753Z,32.53
2019-05-16T16:10:40.723Z,33.75
2019-05-16T16:11:40.720Z,35.01
2019-05-16T16:12:40.701Z,33.29
2019-05-16T16:13:40.691Z,33.06
2019-05-16T16:14:40.684Z,32.81
2019-05-16T16:15:50.266Z,33.09
2019-05-16T16:16:41.660Z,31.60
2019-05-16T16:17:40.662Z,31.60
2019-05-16T16:18:40.649Z,30.10
2019-05-16T16:19:40.647Z,30.09
2019-05-16T16:20:40.621Z,31.88
2019-05-16T16:21:40.619Z,29.92
2019-05-16T16:22:40.612Z,31.50
2019-05-16T16:23:40.596Z,29.79
2019-05-16T16:24:40.581Z,29.58
2019-05-16T16:25:40.576Z,29.76
2019-05-16T16:26:40.556Z,28.79
2019-05-16T16:27:40.572Z,29.65
2019-05-16T16:28:40.543Z,29.83
2019-05-16T16:29:40.539Z,29.43
2019-05-16T16:30:40.516Z,30.16
2019-05-16T16:31:40.513Z,29.92
2019-05-16T16:32:40.507Z,28.99
2019-05-16T16:33:40.488Z,29.83
2019-05-16T16:34:40.484Z,30.97
2019-05-16T16:35:40.487Z,31.59
2019-05-16T16:36:40.461Z,30.49
2019-05-16T16:37:40.459Z,31.59
2019-05-16T16:38:40.444Z,32.64
2019-05-16T16:39:40.424Z,33.24
2019-05-16T16:40:40.416Z,33.82
2019-05-16T16:41:40.413Z,32.17
2019-05-16T16:42:40.408Z,32.17
2019-05-16T16:43:40.388Z,33.12
2019-05-16T16:44:40.399Z,32.15
2019-05-16T16:45:40.363Z,31.62
2019-05-16T16:46:40.353Z,32.03
2019-05-16T16:47:40.352Z,31.32
2019-05-16T16:48:40.338Z,32.02
2019-05-16T16:49:40.622Z,31.45
2019-05-16T16:50:40.324Z,32.43
2019-05-16T16:51:40.338Z,31.42
2019-05-16T16:52:40.289Z,32.02
2019-05-16T16:53:40.282Z,32.51
2019-05-16T16:54:40.266Z,33.12
2019-05-16T16:55:40.263Z,33.42
2019-05-16T16:56:40.260Z,34.22
2019-05-16T16:57:40.243Z,32.40
2019-05-16T16:58:40.236Z,32.10
2019-05-16T16:59:40.219Z,31.59
2019-05-16T17:00:40.220Z,31.52
2019-05-16T17:01:40.212Z,32.38
2019-05-16T17:02:40.191Z,34.20
2019-05-16T17:03:40.178Z,34.23
2019-05-16T17:04:40.168Z,34.63
2019-05-16T17:05:40.156Z,34.58
2019-05-16T17:06:40.154Z,33.55
2019-05-16T17:07:40.137Z,32.14
2019-05-16T17:08:40.125Z,31.41
2019-05-16T17:09:40.118Z,31.49
2019-05-16T17:10:40.103Z,31.08
2019-05-16T17:11:40.092Z,32.20
2019-05-16T17:12:42.189Z,32.10
2019-05-16T17:13:40.075Z,32.00
2019-05-16T17:14:40.062Z,30.93
2019-05-16T17:15:42.169Z,31.11
2019-05-16T17:16:40.042Z,31.31
2019-05-16T17:17:40.027Z,31.11
2019-05-16T17:18:40.034Z,31.21
2019-05-16T17:19:40.016Z,31.13
2019-05-16T17:20:40.002Z,31.62
2019-05-16T17:21:40.002Z,32.35
2019-05-16T17:22:39.982Z,32.51
